Oberon — SKJF — position and weather

sailwx.info

Track history (hours):
 
Tides and Currents Weather Stations Pressure Air Temp Water Temp Dewpoint Dewpoint Depression Visibility Wind Speed Wind Dir Waves Ship Positions

Oberon

Last reported at 2018-May-22 12:17 UTC. Time now 2018-May-28 01:00 UTC.
Position N 32°20' W 117°41'.

Length 232 m; draft 10 m.

Type: Cargo ship. MMSI: 266283000.

Date/timePositionNaut miles runAvg speedWind from/ knotsBaromVisibWave heightAir tempDewpointWater temp
2018-May-22 12:17N 32°20' W 117°41'416.2
2018-May-22 12:00N 32°25' W 117°43'2416.3
2018-May-22 10:33N 32°47' W 117°53'116.1
2018-May-22 10:29N 32°48' W 117°53'816.0
2018-May-22 10:00N 32°55' W 117°56'1114.1
2018-May-22 09:13N 33°06' W 118°00'411.5
2018-May-22 08:50N 33°10' W 118°02'411.4
2018-May-22 08:29N 33°14' W 118°04'2011.5
2018-May-22 06:45N 33°32' W 118°12'311.4
2018-May-22 06:30N 33°35' W 118°13'511.2
2018-May-22 06:00N 33°40' W 118°12'4 7.9
2018-May-22 05:30N 33°44' W 118°12'0 0.7
2018-May-22 05:00N 33°45' W 118°12'0 0.0
2018-May-22 04:28N 33°45' W 118°12'0 0.0
2018-May-22 03:58N 33°45' W 118°12'0 0.0
2018-May-22 03:28N 33°45' W 118°12'0 0.0
2018-May-22 02:58N 33°45' W 118°12'0 0.0
2018-May-22 02:28N 33°45' W 118°12'0 0.0
2018-May-22 01:58N 33°45' W 118°12'0 0.0
2018-May-22 01:28N 33°45' W 118°12'0 0.0
2018-May-22 00:58N 33°45' W 118°12'0 0.0
2018-May-22 00:28N 33°45' W 118°12'0 0.0
2018-May-21 23:59N 33°45' W 118°12'0 0.6
2018-May-21 23:30N 33°44' W 118°12'4 7.1
2018-May-21 23:00N 33°41' W 118°11'5 9.9
2018-May-21 22:30N 33°37' W 118°14'1911.0
2018-May-21 20:49N 33°43' W 118°35'411.6
2018-May-21 20:30N 33°45' W 118°38'611.4
2018-May-21 20:00N 33°48' W 118°45'611.5
2018-May-21 19:29N 33°51' W 118°51'611.4
2018-May-21 19:00N 33°53' W 118°57'611.3
2018-May-21 18:27N 33°56' W 119°03'511.3
2018-May-21 18:00N 33°59' W 119°08'510.3
2018-May-21 17:29N 34°02' W 119°14'611.7
2018-May-21 16:56N 34°03' W 119°21'611.6
2018-May-21 16:24N 34°05' W 119°28'511.7
2018-May-21 16:00N 34°06' W 119°34'611.8
2018-May-21 15:29N 34°08' W 119°41'611.5
2018-May-21 15:00N 34°10' W 119°47'611.6
2018-May-21 14:29N 34°11' W 119°54'611.6
2018-May-21 14:00N 34°13' W 120°01'611.5
2018-May-21 13:28N 34°14' W 120°08'511.3
2018-May-21 12:59N 34°16' W 120°14'611.2
2018-May-21 12:28N 34°17' W 120°21'511.0
2018-May-21 12:00N 34°19' W 120°27'610.7
2018-May-21 11:29N 34°20' W 120°34'511.2
2018-May-21 11:00N 34°21' W 120°40'612.1
2018-May-21 10:30N 34°23' W 120°47'611.2
2018-May-21 10:00N 34°24' W 120°54'511.1
2018-May-21 09:30N 34°28' W 120°58'612.3
2018-May-21 09:00N 34°34' W 121°02'612.5
2018-May-21 08:29N 34°39' W 121°06'612.6
2018-May-21 08:00N 34°44' W 121°11'612.3
2018-May-21 07:30N 34°49' W 121°15'611.8
2018-May-21 07:00N 34°53' W 121°20'611.5
2018-May-21 06:30N 34°58' W 121°24'611.5
2018-May-21 06:00N 35°03' W 121°28'611.7
2018-May-21 05:30N 35°07' W 121°33'611.6
2018-May-21 05:00N 35°12' W 121°37'611.6
2018-May-21 04:30N 35°17' W 121°41'611.3
2018-May-21 03:59N 35°21' W 121°45'612.0
2018-May-21 03:30N 35°26' W 121°50'711.9
2018-May-21 02:55N 35°31' W 121°55'8812.1
2018-May-20 19:37N 36°43' W 122°58'112.5
2018-May-20 19:30N 36°44' W 122°59'612.6
2018-May-20 19:00N 36°50' W 123°03'712.3
2018-May-20 18:27N 36°55' W 123°08'6513.7
2018-May-20 13:42N 37°52' W 123°50'1015.4
2018-May-20 13:02N 38°01' W 123°54'015.1
2018-May-20 13:00N 38°02' W 123°54'1115.0
2018-May-20 12:17N 38°12' W 123°59'414.7
2018-May-20 12:00N 38°16' W 124°01'1314.6
2018-May-20 11:07N 38°28' W 124°07'33215.9
2018-May-19 14:14N 43°57' W 125°00'416.2
2018-May-19 13:58N 44°02' W 125°01'1115.9
2018-May-19 13:15N 44°13' W 125°02'415.6
2018-May-19 12:59N 44°17' W 125°02'915.8
2018-May-19 12:26N 44°26' W 125°02'715.9
2018-May-19 11:58N 44°33' W 125°03'715.8
2018-May-19 11:30N 44°41' W 125°03'815.6
2018-May-19 11:00N 44°48' W 125°04'815.8
2018-May-19 10:28N 44°57' W 125°05'1115.9
2018-May-19 09:47N 45°08' W 125°05'415.9
2018-May-19 09:31N 45°12' W 125°06'815.8
2018-May-19 09:01N 45°20' W 125°06'815.3
2018-May-19 08:30N 45°28' W 125°07'815.3
2018-May-19 08:00N 45°35' W 125°07'815.5
2018-May-19 07:31N 45°43' W 125°08'1115.6
2018-May-19 06:50N 45°54' W 125°09'614.9
2018-May-19 06:27N 45°59' W 125°09'715.4
2018-May-19 06:01N 46°06' W 125°09'815.8
2018-May-19 05:30N 46°14' W 125°10'815.8
2018-May-19 05:00N 46°22' W 125°10'815.8
2018-May-19 04:29N 46°30' W 125°11'1215.7
2018-May-19 03:42N 46°42' W 125°12'315.9
2018-May-19 03:31N 46°45' W 125°12'815.8
2018-May-19 03:00N 46°53' W 125°13'6915.4
2018-May-18 22:34N 48°02' W 125°15'115.1
2018-May-18 22:29N 48°03' W 125°15'815.0
2018-May-18 21:59N 48°10' W 125°12'715.1
2018-May-18 21:30N 48°17' W 125°10'815.3
2018-May-18 21:00N 48°25' W 125°07'714.6
2018-May-18 20:30N 48°31' W 125°01'815.7
2018-May-18 20:00N 48°31' W 124°49'816.0
2018-May-18 19:30N 48°29' W 124°37'816.6
2018-May-18 19:00N 48°26' W 124°26'917.1
2018-May-18 18:30N 48°22' W 124°14'917.4
2018-May-18 18:00N 48°19' W 124°02'816.6
2018-May-18 17:30N 48°17' W 123°50'918.4
2018-May-18 17:00N 48°15' W 123°36'817.1
2018-May-18 16:30N 48°11' W 123°25'612.2
2018-May-18 16:00N 48°10' W 123°16'1119.3
2018-May-18 15:25N 48°12' W 122°59'1518.5
2018-May-18 14:36N 48°06' W 122°39'319.4
2018-May-18 14:25N 48°02' W 122°37'818.8
2018-May-18 14:00N 47°56' W 122°31'918.5
2018-May-18 13:30N 47°47' W 122°26'918.2
2018-May-18 13:00N 47°38' W 122°27'918.6
2018-May-18 12:30N 47°29' W 122°25'816.2
2018-May-18 12:00N 47°21' W 122°24'4 8.7
2018-May-18 11:30N 47°17' W 122°25'1 3.0
2018-May-18 11:01N 47°16' W 122°23'0 0.0
2018-May-18 10:30N 47°16' W 122°23'0 0.0
2018-May-18 09:58N 47°16' W 122°23'0 0.0
2018-May-18 09:22N 47°16' W 122°23'0 0.0
2018-May-18 08:58N 47°16' W 122°23'0 0.0
2018-May-18 08:28N 47°16' W 122°23'0 0.0
2018-May-18 07:58N 47°16' W 122°23'0 0.0
2018-May-18 07:22N 47°16' W 122°23'0 0.0
2018-May-18 06:58N 47°16' W 122°23'0 0.0
2018-May-18 06:28N 47°16' W 122°23'0 0.0
2018-May-18 05:55N 47°16' W 122°23'0 0.0
2018-May-18 05:25N 47°16' W 122°23'0 0.0
2018-May-18 03:16N 47°16' W 122°23'0 0.0
2018-May-18 01:55N 47°16' W 122°23'0 0.0
2018-May-18 01:19N 47°16' W 122°23'0 0.0
2018-May-17 22:41N 47°16' W 122°23'0 0.7
2018-May-17 22:28N 47°16' W 122°23'0 0.0
2018-May-17 18:03N 47°15' W 122°23'0 0.0
2018-May-17 16:45N 47°15' W 122°23'0 0.0
2018-May-17 16:27N 47°15' W 122°23'0 0.0
2018-May-17 15:57N 47°15' W 122°23'0 0.0
2018-May-17 14:25N 47°15' W 122°23'0 0.2
2018-May-17 13:56N 47°15' W 122°23'0 0.1
2018-May-17 13:15N 47°15' W 122°23'0 0.0
2018-May-17 12:59N 47°15' W 122°23'1 3.0
2018-May-17 12:30N 47°16' W 122°24'3 5.8
2018-May-17 12:01N 47°18' W 122°27'713.7
2018-May-17 11:30N 47°24' W 122°23'917.9
2018-May-17 11:00N 47°33' W 122°27'918.8
2018-May-17 10:30N 47°42' W 122°28'918.5
2018-May-17 10:00N 47°51' W 122°29'918.4
2018-May-17 09:30N 47°59' W 122°37'918.9
2018-May-17 09:00N 48°08' W 122°42'1019.2
2018-May-17 08:29N 48°11' W 122°56'917.9
2018-May-17 07:57N 48°11' W 123°10'816.1
2018-May-17 07:29N 48°10' W 123°22'4 7.7
2018-May-17 06:59N 48°11' W 123°27'612.5
2018-May-17 06:30N 48°13' W 123°36'711.9
2018-May-17 05:55N 48°13' W 123°46'511.7
2018-May-17 05:29N 48°13' W 123°54'511.4
2018-May-17 05:00N 48°15' W 124°01'612.0
2018-May-17 04:30N 48°18' W 124°09'612.0
2018-May-17 04:00N 48°21' W 124°17'612.0
2018-May-17 03:30N 48°23' W 124°26'611.8
2018-May-17 03:00N 48°25' W 124°34'612.2
2018-May-17 02:30N 48°28' W 124°42'612.0
2018-May-17 01:59N 48°29' W 124°52'511.6
2018-May-17 01:30N 48°29' W 124°60'612.1
2018-May-17 01:00N 48°28' W 125°09'612.0
2018-May-17 00:29N 48°28' W 125°18'611.6
2018-May-17 00:00N 48°29' W 125°27'611.7
2018-May-16 23:29N 48°28' W 125°36'611.6
2018-May-16 22:58N 48°29' W 125°45'5 9.9
2018-May-16 22:30N 48°29' W 125°52'815.8
2018-May-16 22:00N 48°29' W 126°04'815.8
2018-May-16 21:30N 48°29' W 126°16'815.5
2018-May-16 20:59N 48°29' W 126°28'7015.3
2018-May-16 16:25N 48°29' W 128°13'6815.1
2018-May-16 11:53N 48°29' W 129°57'615.0
2018-May-16 11:30N 48°29' W 130°05'815.0
2018-May-16 11:00N 48°29' W 130°17'3114.9
2018-May-16 08:55N 48°29' W 131°04'715.1
2018-May-16 08:29N 48°29' W 131°13'715.2
2018-May-16 08:00N 48°29' W 131°24'3615.0
2018-May-16 05:37N 48°31' W 132°19'215.2
2018-May-16 05:30N 48°31' W 132°21'  
Track history (hours):
 
Tides and Currents Weather Stations Pressure Air Temp Water Temp Dewpoint Dewpoint Depression Visibility Wind Speed Wind Dir Waves Ship Positions

Oberon

Last reported at 2018-May-22 12:17 UTC. Time now 2018-May-28 01:00 UTC.
Position N 32°20' W 117°41'.

Length 232 m; draft 10 m.

Type: Cargo ship. MMSI: 266283000.

Date/timePositionNaut miles runAvg speedWind from/ knotsBaromVisibWave heightAir tempDewpointWater temp
2018-May-22 12:17N 32°20' W 117°41'416.2
2018-May-22 12:00N 32°25' W 117°43'2416.3
2018-May-22 10:33N 32°47' W 117°53'116.1
2018-May-22 10:29N 32°48' W 117°53'816.0
2018-May-22 10:00N 32°55' W 117°56'1114.1
2018-May-22 09:13N 33°06' W 118°00'411.5
2018-May-22 08:50N 33°10' W 118°02'411.4
2018-May-22 08:29N 33°14' W 118°04'2011.5
2018-May-22 06:45N 33°32' W 118°12'311.4
2018-May-22 06:30N 33°35' W 118°13'511.2
2018-May-22 06:00N 33°40' W 118°12'4 7.9
2018-May-22 05:30N 33°44' W 118°12'0 0.7
2018-May-22 05:00N 33°45' W 118°12'0 0.0
2018-May-22 04:28N 33°45' W 118°12'0 0.0
2018-May-22 03:58N 33°45' W 118°12'0 0.0
2018-May-22 03:28N 33°45' W 118°12'0 0.0
2018-May-22 02:58N 33°45' W 118°12'0 0.0
2018-May-22 02:28N 33°45' W 118°12'0 0.0
2018-May-22 01:58N 33°45' W 118°12'0 0.0
2018-May-22 01:28N 33°45' W 118°12'0 0.0
2018-May-22 00:58N 33°45' W 118°12'0 0.0
2018-May-22 00:28N 33°45' W 118°12'0 0.0
2018-May-21 23:59N 33°45' W 118°12'0 0.6
2018-May-21 23:30N 33°44' W 118°12'4 7.1
2018-May-21 23:00N 33°41' W 118°11'5 9.9
2018-May-21 22:30N 33°37' W 118°14'1911.0
2018-May-21 20:49N 33°43' W 118°35'411.6
2018-May-21 20:30N 33°45' W 118°38'611.4
2018-May-21 20:00N 33°48' W 118°45'611.5
2018-May-21 19:29N 33°51' W 118°51'611.4
2018-May-21 19:00N 33°53' W 118°57'611.3
2018-May-21 18:27N 33°56' W 119°03'511.3
2018-May-21 18:00N 33°59' W 119°08'510.3
2018-May-21 17:29N 34°02' W 119°14'611.7
2018-May-21 16:56N 34°03' W 119°21'611.6
2018-May-21 16:24N 34°05' W 119°28'511.7
2018-May-21 16:00N 34°06' W 119°34'611.8
2018-May-21 15:29N 34°08' W 119°41'611.5
2018-May-21 15:00N 34°10' W 119°47'611.6
2018-May-21 14:29N 34°11' W 119°54'611.6
2018-May-21 14:00N 34°13' W 120°01'611.5
2018-May-21 13:28N 34°14' W 120°08'511.3
2018-May-21 12:59N 34°16' W 120°14'611.2
2018-May-21 12:28N 34°17' W 120°21'511.0
2018-May-21 12:00N 34°19' W 120°27'610.7
2018-May-21 11:29N 34°20' W 120°34'511.2
2018-May-21 11:00N 34°21' W 120°40'612.1
2018-May-21 10:30N 34°23' W 120°47'611.2
2018-May-21 10:00N 34°24' W 120°54'511.1
2018-May-21 09:30N 34°28' W 120°58'612.3
2018-May-21 09:00N 34°34' W 121°02'612.5
2018-May-21 08:29N 34°39' W 121°06'612.6
2018-May-21 08:00N 34°44' W 121°11'612.3
2018-May-21 07:30N 34°49' W 121°15'611.8
2018-May-21 07:00N 34°53' W 121°20'611.5
2018-May-21 06:30N 34°58' W 121°24'611.5
2018-May-21 06:00N 35°03' W 121°28'611.7
2018-May-21 05:30N 35°07' W 121°33'611.6
2018-May-21 05:00N 35°12' W 121°37'611.6
2018-May-21 04:30N 35°17' W 121°41'611.3
2018-May-21 03:59N 35°21' W 121°45'612.0
2018-May-21 03:30N 35°26' W 121°50'711.9
2018-May-21 02:55N 35°31' W 121°55'8812.1
2018-May-20 19:37N 36°43' W 122°58'112.5
2018-May-20 19:30N 36°44' W 122°59'612.6
2018-May-20 19:00N 36°50' W 123°03'712.3
2018-May-20 18:27N 36°55' W 123°08'6513.7
2018-May-20 13:42N 37°52' W 123°50'1015.4
2018-May-20 13:02N 38°01' W 123°54'015.1
2018-May-20 13:00N 38°02' W 123°54'1115.0
2018-May-20 12:17N 38°12' W 123°59'414.7
2018-May-20 12:00N 38°16' W 124°01'1314.6
2018-May-20 11:07N 38°28' W 124°07'33215.9
2018-May-19 14:14N 43°57' W 125°00'416.2
2018-May-19 13:58N 44°02' W 125°01'1115.9
2018-May-19 13:15N 44°13' W 125°02'415.6
2018-May-19 12:59N 44°17' W 125°02'915.8
2018-May-19 12:26N 44°26' W 125°02'715.9
2018-May-19 11:58N 44°33' W 125°03'715.8
2018-May-19 11:30N 44°41' W 125°03'815.6
2018-May-19 11:00N 44°48' W 125°04'815.8
2018-May-19 10:28N 44°57' W 125°05'1115.9
2018-May-19 09:47N 45°08' W 125°05'415.9
2018-May-19 09:31N 45°12' W 125°06'815.8
2018-May-19 09:01N 45°20' W 125°06'815.3
2018-May-19 08:30N 45°28' W 125°07'815.3
2018-May-19 08:00N 45°35' W 125°07'815.5
2018-May-19 07:31N 45°43' W 125°08'1115.6
2018-May-19 06:50N 45°54' W 125°09'614.9
2018-May-19 06:27N 45°59' W 125°09'715.4
2018-May-19 06:01N 46°06' W 125°09'815.8
2018-May-19 05:30N 46°14' W 125°10'815.8
2018-May-19 05:00N 46°22' W 125°10'815.8
2018-May-19 04:29N 46°30' W 125°11'1215.7
2018-May-19 03:42N 46°42' W 125°12'315.9
2018-May-19 03:31N 46°45' W 125°12'815.8
2018-May-19 03:00N 46°53' W 125°13'6915.4
2018-May-18 22:34N 48°02' W 125°15'115.1
2018-May-18 22:29N 48°03' W 125°15'815.0
2018-May-18 21:59N 48°10' W 125°12'715.1
2018-May-18 21:30N 48°17' W 125°10'815.3
2018-May-18 21:00N 48°25' W 125°07'714.6
2018-May-18 20:30N 48°31' W 125°01'815.7
2018-May-18 20:00N 48°31' W 124°49'816.0
2018-May-18 19:30N 48°29' W 124°37'816.6
2018-May-18 19:00N 48°26' W 124°26'917.1
2018-May-18 18:30N 48°22' W 124°14'917.4
2018-May-18 18:00N 48°19' W 124°02'816.6
2018-May-18 17:30N 48°17' W 123°50'918.4
2018-May-18 17:00N 48°15' W 123°36'817.1
2018-May-18 16:30N 48°11' W 123°25'612.2
2018-May-18 16:00N 48°10' W 123°16'1119.3
2018-May-18 15:25N 48°12' W 122°59'1518.5
2018-May-18 14:36N 48°06' W 122°39'319.4
2018-May-18 14:25N 48°02' W 122°37'818.8
2018-May-18 14:00N 47°56' W 122°31'918.5
2018-May-18 13:30N 47°47' W 122°26'918.2
2018-May-18 13:00N 47°38' W 122°27'918.6
2018-May-18 12:30N 47°29' W 122°25'816.2
2018-May-18 12:00N 47°21' W 122°24'4 8.7
2018-May-18 11:30N 47°17' W 122°25'1 3.0
2018-May-18 11:01N 47°16' W 122°23'0 0.0
2018-May-18 10:30N 47°16' W 122°23'0 0.0
2018-May-18 09:58N 47°16' W 122°23'0 0.0
2018-May-18 09:22N 47°16' W 122°23'0 0.0
2018-May-18 08:58N 47°16' W 122°23'0 0.0
2018-May-18 08:28N 47°16' W 122°23'0 0.0
2018-May-18 07:58N 47°16' W 122°23'0 0.0
2018-May-18 07:22N 47°16' W 122°23'0 0.0
2018-May-18 06:58N 47°16' W 122°23'0 0.0
2018-May-18 06:28N 47°16' W 122°23'0 0.0
2018-May-18 05:55N 47°16' W 122°23'0 0.0
2018-May-18 05:25N 47°16' W 122°23'0 0.0
2018-May-18 03:16N 47°16' W 122°23'0 0.0
2018-May-18 01:55N 47°16' W 122°23'0 0.0
2018-May-18 01:19N 47°16' W 122°23'0 0.0
2018-May-17 22:41N 47°16' W 122°23'0 0.7
2018-May-17 22:28N 47°16' W 122°23'0 0.0
2018-May-17 18:03N 47°15' W 122°23'0 0.0
2018-May-17 16:45N 47°15' W 122°23'0 0.0
2018-May-17 16:27N 47°15' W 122°23'0 0.0
2018-May-17 15:57N 47°15' W 122°23'0 0.0
2018-May-17 14:25N 47°15' W 122°23'0 0.2
2018-May-17 13:56N 47°15' W 122°23'0 0.1
2018-May-17 13:15N 47°15' W 122°23'0 0.0
2018-May-17 12:59N 47°15' W 122°23'1 3.0
2018-May-17 12:30N 47°16' W 122°24'3 5.8
2018-May-17 12:01N 47°18' W 122°27'713.7
2018-May-17 11:30N 47°24' W 122°23'917.9
2018-May-17 11:00N 47°33' W 122°27'918.8
2018-May-17 10:30N 47°42' W 122°28'918.5
2018-May-17 10:00N 47°51' W 122°29'918.4
2018-May-17 09:30N 47°59' W 122°37'918.9
2018-May-17 09:00N 48°08' W 122°42'1019.2
2018-May-17 08:29N 48°11' W 122°56'917.9
2018-May-17 07:57N 48°11' W 123°10'816.1
2018-May-17 07:29N 48°10' W 123°22'4 7.7
2018-May-17 06:59N 48°11' W 123°27'612.5
2018-May-17 06:30N 48°13' W 123°36'711.9
2018-May-17 05:55N 48°13' W 123°46'511.7
2018-May-17 05:29N 48°13' W 123°54'511.4
2018-May-17 05:00N 48°15' W 124°01'612.0
2018-May-17 04:30N 48°18' W 124°09'612.0
2018-May-17 04:00N 48°21' W 124°17'612.0
2018-May-17 03:30N 48°23' W 124°26'611.8
2018-May-17 03:00N 48°25' W 124°34'612.2
2018-May-17 02:30N 48°28' W 124°42'612.0
2018-May-17 01:59N 48°29' W 124°52'511.6
2018-May-17 01:30N 48°29' W 124°60'612.1
2018-May-17 01:00N 48°28' W 125°09'612.0
2018-May-17 00:29N 48°28' W 125°18'611.6
2018-May-17 00:00N 48°29' W 125°27'611.7
2018-May-16 23:29N 48°28' W 125°36'611.6
2018-May-16 22:58N 48°29' W 125°45'5 9.9
2018-May-16 22:30N 48°29' W 125°52'815.8
2018-May-16 22:00N 48°29' W 126°04'815.8
2018-May-16 21:30N 48°29' W 126°16'815.5
2018-May-16 20:59N 48°29' W 126°28'7015.3
2018-May-16 16:25N 48°29' W 128°13'6815.1
2018-May-16 11:53N 48°29' W 129°57'615.0
2018-May-16 11:30N 48°29' W 130°05'815.0
2018-May-16 11:00N 48°29' W 130°17'3114.9
2018-May-16 08:55N 48°29' W 131°04'715.1
2018-May-16 08:29N 48°29' W 131°13'715.2
2018-May-16 08:00N 48°29' W 131°24'3615.0
2018-May-16 05:37N 48°31' W 132°19'215.2
2018-May-16 05:30N 48°31' W 132°21'  

Dump ship's entire track history